Time;durP1;ratioP1;P1;durP2;ratioP2;P2;SDS_P1;SDS_P2;PMS_P1;PMS_P2;Temp;Humidity;BMP_temperature;BMP_pressure;BME280_temperature;BME280_humidity;BME280_pressure;Samples;Min_cycle;Max_cycle;Signal;HPM_P1;HPM_P2
2023/08/03 00:01:31;;;;;;;3.92;1.70;;;18.30;99.90;;;;;;10498195;28;20260;-88
2023/08/03 00:06:34;;;;;;;2.72;1.88;;;18.20;99.90;;;;;;10498752;28;20560;-88
2023/08/03 00:11:37;;;;;;;2.42;1.90;;;18.10;99.90;;;;;;10498865;28;20240;-88
2023/08/03 00:16:40;;;;;;;2.15;1.58;;;18.10;99.90;;;;;;10498214;28;20214;-87
2023/08/03 00:21:42;;;;;;;1.88;1.33;;;18.10;99.90;;;;;;10498431;28;20187;-88
2023/08/03 00:26:45;;;;;;;2.70;1.20;;;18.20;99.90;;;;;;10497478;28;20210;-88
2023/08/03 00:31:48;;;;;;;2.13;1.40;;;18.20;99.90;;;;;;10479955;28;20567;-87
2023/08/03 00:36:50;;;;;;;2.33;1.63;;;18.20;99.90;;;;;;10497066;28;20211;-87
2023/08/03 00:41:53;;;;;;;1.27;1.00;;;18.20;99.90;;;;;;10497611;28;20194;-87
2023/08/03 00:46:56;;;;;;;1.50;1.17;;;18.10;99.90;;;;;;10498630;28;20229;-88
2023/08/03 00:51:59;;;;;;;1.95;1.45;;;18.10;99.90;;;;;;10480505;28;20668;-88
2023/08/03 00:57:02;;;;;;;1.95;1.05;;;18.00;99.90;;;;;;10478143;28;20226;-87
2023/08/03 01:02:08;;;;;;;1.50;1.33;;;17.90;99.90;;;;;;10496809;28;20251;-87
2023/08/03 01:07:11;;;;;;;1.92;0.85;;;17.80;99.90;;;;;;10477911;28;20232;-88
2023/08/03 01:12:13;;;;;;;2.28;1.05;;;17.80;99.90;;;;;;10495765;28;20574;-88
2023/08/03 01:17:16;;;;;;;1.60;1.10;;;17.70;99.90;;;;;;10477114;28;20279;-87
2023/08/03 01:22:19;;;;;;;2.50;1.45;;;17.60;99.90;;;;;;10478026;28;20722;-88
2023/08/03 01:27:22;;;;;;;4.57;1.05;;;17.50;99.90;;;;;;10477715;28;20263;-88
2023/08/03 01:32:25;;;;;;;1.60;1.40;;;17.40;99.90;;;;;;10477370;28;20767;-88
2023/08/03 01:37:27;;;;;;;4.93;1.42;;;17.30;99.90;;;;;;10495257;28;20239;-88
2023/08/03 01:42:30;;;;;;;2.58;1.35;;;17.40;99.90;;;;;;10461135;28;20268;-88
2023/08/03 01:47:33;;;;;;;3.20;1.27;;;17.50;99.90;;;;;;10477179;28;20224;-87
2023/08/03 01:52:36;;;;;;;4.57;1.50;;;17.60;99.90;;;;;;10476867;28;20202;-88
2023/08/03 01:57:38;;;;;;;1.42;1.27;;;17.60;99.90;;;;;;10476408;28;20226;-87
2023/08/03 02:02:41;;;;;;;2.33;1.30;;;17.70;99.90;;;;;;10476962;28;20232;-88
2023/08/03 02:07:53;;;;;;;1.30;0.95;;;17.70;99.90;;;;;;10476816;28;20259;-87
2023/08/03 02:12:56;;;;;;;2.00;1.45;;;17.80;99.90;;;;;;10476729;28;20384;-88
2023/08/03 02:17:59;;;;;;;2.47;1.20;;;17.90;99.90;;;;;;10476103;28;20271;-87
2023/08/03 02:23:02;;;;;;;2.28;1.30;;;17.90;99.90;;;;;;10476565;28;20203;-88
2023/08/03 02:28:05;;;;;;;3.33;1.15;;;18.00;99.90;;;;;;10497662;28;20252;-87
2023/08/03 02:33:07;;;;;;;1.40;1.13;;;17.90;99.90;;;;;;10483616;28;20217;-87
2023/08/03 02:38:10;;;;;;;3.20;1.80;;;18.10;99.90;;;;;;10467074;28;20315;-88
2023/08/03 02:43:13;;;;;;;2.17;1.55;;;18.30;99.90;;;;;;10483904;28;20548;-88
2023/08/03 02:48:18;;;;;;;2.30;1.27;;;18.40;99.90;;;;;;10467673;28;20619;-87
2023/08/03 02:53:27;;;;;;;5.97;2.22;;;18.50;99.90;;;;;;10483104;28;20230;-88
2023/08/03 02:58:29;;;;;;;3.38;1.70;;;18.50;99.90;;;;;;10483513;28;20230;-88
2023/08/03 03:03:33;;;;;;;2.85;1.92;;;18.60;99.90;;;;;;10482659;28;20695;-88
2023/08/03 03:08:36;;;;;;;1.30;1.20;;;18.70;99.90;;;;;;10483287;28;20690;-88
2023/08/03 03:13:40;;;;;;;2.42;1.50;;;18.80;97.70;;;;;;10466320;28;20203;-87
2023/08/03 03:18:44;;;;;;;4.43;2.05;;;18.90;99.90;;;;;;10482060;28;20276;-87
2023/08/03 03:23:48;;;;;;;1.60;1.50;;;19.00;99.90;;;;;;10500662;28;20552;-87
2023/08/03 03:28:50;;;;;;;7.90;3.13;;;19.00;98.20;;;;;;10500211;28;20198;-87
2023/08/03 03:33:59;;;;;;;1.40;1.30;;;19.10;98.40;;;;;;10481651;28;20264;-87
2023/08/03 03:39:02;;;;;;;2.63;1.52;;;19.10;96.50;;;;;;10480911;28;20226;-87
2023/08/03 03:44:05;;;;;;;4.15;2.15;;;19.20;98.60;;;;;;10465208;28;20248;-87
2023/08/03 03:49:09;;;;;;;3.95;2.13;;;19.20;98.20;;;;;;10480933;28;20236;-88
2023/08/03 03:54:13;;;;;;;4.25;2.75;;;19.30;97.70;;;;;;10480505;28;20251;-87
2023/08/03 03:59:15;;;;;;;3.38;1.63;;;19.40;97.10;;;;;;10464358;28;20271;-88
2023/08/03 04:04:18;;;;;;;2.35;1.45;;;19.40;98.90;;;;;;10480210;28;20206;-88
2023/08/03 04:09:20;;;;;;;6.28;1.45;;;19.30;99.80;;;;;;10498784;28;20194;-88
2023/08/03 04:14:23;;;;;;;1.60;1.38;;;19.20;99.90;;;;;;10480184;28;20206;-88
2023/08/03 04:19:25;;;;;;;3.08;1.80;;;19.20;99.40;;;;;;10479969;28;20226;-88
2023/08/03 04:24:30;;;;;;;2.17;1.52;;;19.30;99.90;;;;;;10497965;28;20195;-87
2023/08/03 04:29:34;;;;;;;5.68;1.58;;;19.10;98.80;;;;;;10463276;28;20283;-87
2023/08/03 04:34:37;;;;;;;6.13;2.40;;;19.10;98.40;;;;;;10497539;28;20206;-87
2023/08/03 04:39:43;;;;;;;4.00;1.88;;;19.10;99.70;;;;;;10478955;28;20644;-87
2023/08/03 04:44:49;;;;;;;2.85;2.13;;;19.10;99.90;;;;;;10478707;28;20680;-87
2023/08/03 04:49:54;;;;;;;6.13;2.28;;;19.10;99.60;;;;;;10477843;28;20622;-87
2023/08/03 04:54:57;;;;;;;1.85;1.67;;;19.10;99.90;;;;;;10495928;28;20676;-87
2023/08/03 04:59:59;;;;;;;2.20;1.38;;;19.30;98.00;;;;;;10496606;28;20210;-87
2023/08/03 05:05:03;;;;;;;1.20;1.02;;;19.30;97.70;;;;;;10478095;28;20236;-87
2023/08/03 05:10:06;;;;;;;1.30;1.20;;;19.40;98.60;;;;;;10461538;28;20206;-88
2023/08/03 05:15:09;;;;;;;4.13;1.60;;;19.50;95.10;;;;;;10461293;28;20260;-87
2023/08/03 05:20:14;;;;;;;1.52;1.13;;;19.70;94.40;;;;;;10477700;28;20223;-88
2023/08/03 05:25:16;;;;;;;2.25;2.00;;;19.90;93.90;;;;;;10495858;28;20212;-87
2023/08/03 05:30:19;;;;;;;2.15;1.27;;;19.80;94.90;;;;;;10495190;28;20555;-87
2023/08/03 05:35:22;;;;;;;2.60;1.80;;;19.90;93.50;;;;;;10477532;28;20746;-87
2023/08/03 05:40:24;;;;;;;1.42;1.30;;;19.80;93.00;;;;;;10477595;28;20271;-87
2023/08/03 05:45:45;;;;;;;3.67;1.77;;;19.90;93.90;;;;;;10477035;28;20225;-87
2023/08/03 05:50:49;;;;;;;2.20;1.50;;;20.00;93.30;;;;;;10494720;28;20624;-87
2023/08/03 05:55:52;;;;;;;3.42;1.33;;;20.10;92.90;;;;;;10494695;28;20224;-87
2023/08/03 06:01:17;;;;;;;1.60;1.38;;;20.20;95.90;;;;;;10496204;28;20202;-87
2023/08/03 06:06:22;;;;;;;3.45;1.30;;;20.30;92.90;;;;;;10503623;28;20203;-87
2023/08/03 06:11:25;;;;;;;1.55;1.45;;;20.40;94.70;;;;;;10485064;28;20327;-87
2023/08/03 06:16:44;;;;;;;1.90;1.60;;;20.40;91.90;;;;;;10502162;28;20217;-87
2023/08/03 06:21:47;;;;;;;2.17;1.58;;;20.40;92.40;;;;;;10484987;28;20284;-87
2023/08/03 06:26:50;;;;;;;4.72;1.65;;;20.40;91.90;;;;;;10485052;28;20260;-87
2023/08/03 06:31:53;;;;;;;6.38;1.77;;;20.50;90.60;;;;;;10502351;28;20622;-87
2023/08/03 06:36:58;;;;;;;2.30;1.58;;;20.60;92.70;;;;;;10501596;28;20226;-87
2023/08/03 06:42:02;;;;;;;2.65;1.65;;;20.70;88.90;;;;;;10502330;28;20304;-88
2023/08/03 06:47:05;;;;;;;1.75;1.65;;;20.80;88.50;;;;;;10500714;28;20207;-87
2023/08/03 06:52:08;;;;;;;1.98;1.70;;;20.90;85.00;;;;;;10501818;28;20272;-87
2023/08/03 06:57:10;;;;;;;4.85;1.80;;;21.00;85.20;;;;;;10501362;28;20218;-88
2023/08/03 07:02:13;;;;;;;4.45;1.60;;;21.10;88.50;;;;;;10500689;28;20206;-87
2023/08/03 07:07:15;;;;;;;1.83;1.73;;;21.20;86.20;;;;;;10466732;28;20206;-86
2023/08/03 07:12:18;;;;;;;2.00;1.73;;;21.30;82.00;;;;;;10465708;28;20218;-87
2023/08/03 07:17:21;;;;;;;3.38;1.45;;;21.30;80.90;;;;;;10500522;28;20236;-87
2023/08/03 07:22:24;;;;;;;3.60;1.90;;;21.30;79.10;;;;;;10500604;28;20244;-88
2023/08/03 07:27:26;;;;;;;3.67;1.88;;;21.40;78.50;;;;;;10499818;28;20210;-88
2023/08/03 07:32:29;;;;;;;1.85;1.35;;;21.50;81.30;;;;;;10500354;28;20196;-87
2023/08/03 07:37:32;;;;;;;2.25;1.92;;;21.60;82.00;;;;;;10482024;28;20638;-87
2023/08/03 07:42:34;;;;;;;3.08;2.00;;;21.80;79.70;;;;;;10500836;28;20186;-87
2023/08/03 07:47:37;;;;;;;4.57;1.50;;;22.00;80.30;;;;;;10499516;28;20259;-88
2023/08/03 07:52:39;;;;;;;3.92;1.83;;;22.10;76.50;;;;;;10481237;28;20199;-87
2023/08/03 07:57:42;;;;;;;3.15;1.48;;;22.00;75.90;;;;;;10498853;28;20351;-87
2023/08/03 08:02:44;;;;;;;3.00;2.10;;;22.00;79.60;;;;;;10498252;28;20260;-87
2023/08/03 08:07:48;;;;;;;3.25;1.85;;;22.10;73.90;;;;;;10498607;28;20198;-88
2023/08/03 08:12:50;;;;;;;3.13;1.70;;;22.10;74.60;;;;;;10480732;28;20194;-87
2023/08/03 08:17:53;;;;;;;4.68;2.35;;;22.30;77.10;;;;;;10497202;28;20230;-87
2023/08/03 08:22:56;;;;;;;6.65;2.17;;;22.40;73.30;;;;;;10498119;28;20264;-88
2023/08/03 08:27:59;;;;;;;2.00;1.50;;;22.60;73.90;;;;;;10497022;28;20209;-87
2023/08/03 08:33:01;;;;;;;2.85;1.42;;;23.00;75.50;;;;;;10479355;28;20202;-87
2023/08/03 08:38:07;;;;;;;2.50;1.40;;;22.80;67.70;;;;;;10497270;28;20252;-87
2023/08/03 08:43:10;;;;;;;6.75;2.35;;;22.50;69.90;;;;;;10496678;28;20632;-87
2023/08/03 08:48:14;;;;;;;4.13;2.10;;;22.40;72.90;;;;;;10497000;28;20202;-87
2023/08/03 08:53:20;;;;;;;2.30;1.88;;;22.40;72.10;;;;;;10478626;28;20213;-87
2023/08/03 08:58:24;;;;;;;3.53;1.85;;;22.40;68.80;;;;;;10496570;28;20218;-87
2023/08/03 09:03:27;;;;;;;4.93;1.92;;;22.40;70.00;;;;;;10496308;28;20206;-88
2023/08/03 09:08:58;;;;;;;3.22;1.70;;;22.40;67.00;;;;;;10461059;28;20568;-88
2023/08/03 09:14:03;;;;;;;4.40;1.90;;;22.70;65.50;;;;;;10496357;28;20263;-87
2023/08/03 09:19:06;;;;;;;3.55;1.95;;;23.10;71.90;;;;;;10495252;28;20248;-87
2023/08/03 09:24:18;;;;;;;2.25;1.95;;;23.20;64.60;;;;;;10478243;28;20260;-88
2023/08/03 09:29:28;;;;;;;4.93;2.03;;;23.10;61.60;;;;;;10478025;28;20274;-88
2023/08/03 09:34:42;;;;;;;1.88;1.58;;;23.10;64.30;;;;;;10494929;28;20589;-88
2023/08/03 09:39:53;;;;;;;2.63;2.05;;;23.20;63.10;;;;;;10493930;28;20704;-88
2023/08/03 09:44:57;;;;;;;6.10;1.90;;;23.00;62.20;;;;;;10495538;28;20256;-88
2023/08/03 09:50:00;;;;;;;1.60;1.40;;;22.80;61.20;;;;;;10495353;28;20206;-88
2023/08/03 09:55:06;;;;;;;1.73;1.63;;;23.00;61.80;;;;;;10494536;28;20202;-87
2023/08/03 10:00:12;;;;;;;2.28;1.20;;;23.20;61.20;;;;;;10476280;28;20226;-88
2023/08/03 10:05:18;;;;;;;3.47;1.50;;;23.50;64.50;;;;;;10494934;28;20202;-88
2023/08/03 10:10:25;;;;;;;2.28;1.80;;;23.50;64.90;;;;;;10494821;28;20263;-88
2023/08/03 10:15:28;;;;;;;6.47;1.60;;;23.90;61.40;;;;;;10494108;28;20241;-87
2023/08/03 10:20:32;;;;;;;4.47;1.27;;;23.90;62.90;;;;;;10493973;28;20226;-87
2023/08/03 10:25:56;;;;;;;2.65;2.05;;;23.80;59.90;;;;;;10494771;28;20217;-87
2023/08/03 10:31:07;;;;;;;2.63;1.42;;;23.80;53.70;;;;;;10494737;28;20220;-88
2023/08/03 10:36:09;;;;;;;7.05;1.70;;;23.50;54.00;;;;;;10477070;28;20615;-88
2023/08/03 10:41:30;;;;;;;1.65;1.55;;;23.40;59.70;;;;;;10477042;28;20230;-88
2023/08/03 10:46:39;;;;;;;1.98;1.70;;;23.20;56.40;;;;;;10494456;28;20267;-87
2023/08/03 10:51:43;;;;;;;3.25;1.88;;;23.20;56.80;;;;;;10501335;28;20199;-88
2023/08/03 10:57:09;;;;;;;3.22;1.20;;;23.20;54.70;;;;;;10501352;28;20194;-88
2023/08/03 11:02:14;;;;;;;4.03;1.50;;;23.00;56.30;;;;;;10500332;28;20206;-88
2023/08/03 11:07:21;;;;;;;2.00;1.65;;;22.70;63.10;;;;;;10483160;28;20626;-88
2023/08/03 11:12:26;;;;;;;16.27;3.70;;;22.10;68.50;;;;;;10500833;28;20202;-88
2023/08/03 11:17:31;;;;;;;2.38;1.10;;;21.40;95.60;;;;;;10500641;28;20698;-88
2023/08/03 11:22:33;;;;;;;3.40;1.00;;;20.80;95.90;;;;;;10466386;28;20199;-87
2023/08/03 11:27:40;;;;;;;5.25;1.30;;;20.60;98.80;;;;;;10500460;28;20256;-88
2023/08/03 11:32:43;;;;;;;2.20;1.23;;;20.90;98.60;;;;;;10481612;28;20268;-87
2023/08/03 11:37:46;;;;;;;2.08;1.80;;;21.20;95.10;;;;;;10481193;28;20276;-88
2023/08/03 11:42:48;;;;;;;2.88;1.45;;;21.30;92.00;;;;;;10481424;28;20207;-88
2023/08/03 11:47:54;;;;;;;4.22;2.10;;;21.50;95.60;;;;;;10481592;28;20202;-88
2023/08/03 11:52:59;;;;;;;4.18;1.67;;;21.60;96.60;;;;;;10481501;28;20198;-88
2023/08/03 11:58:22;;;;;;;1.42;1.17;;;21.70;98.70;;;;;;10498480;28;20580;-88
2023/08/03 12:03:31;;;;;;;3.22;1.63;;;21.80;99.90;;;;;;10481110;28;20221;-88
2023/08/03 12:08:41;;;;;;;3.13;1.45;;;21.90;99.90;;;;;;10480252;28;20203;-88
2023/08/03 12:13:44;;;;;;;2.95;1.75;;;21.90;99.90;;;;;;10480569;28;20205;-88
2023/08/03 12:18:47;;;;;;;5.60;1.70;;;22.00;99.90;;;;;;10479546;28;20773;-88
2023/08/03 12:23:52;;;;;;;2.67;1.50;;;22.10;99.90;;;;;;10497498;28;20220;-88
2023/08/03 12:28:55;;;;;;;2.78;1.48;;;22.20;99.90;;;;;;10497930;28;20565;-88
2023/08/03 12:34:09;;;;;;;5.00;1.52;;;22.30;98.90;;;;;;10497533;28;20199;-88
2023/08/03 12:39:12;;;;;;;6.03;2.20;;;22.40;98.30;;;;;;10478908;28;20781;-88
2023/08/03 12:44:15;;;;;;;2.13;1.27;;;22.30;96.10;;;;;;10497363;28;20259;-88
2023/08/03 12:49:20;;;;;;;1.83;1.20;;;22.30;96.40;;;;;;10497090;28;20195;-88
2023/08/03 12:54:23;;;;;;;6.90;1.80;;;22.20;93.50;;;;;;10495499;28;20202;-88
2023/08/03 12:59:29;;;;;;;2.00;1.38;;;22.30;95.60;;;;;;10496756;28;20237;-88
2023/08/03 13:04:32;;;;;;;2.13;1.33;;;22.30;95.20;;;;;;10496353;28;20249;-88
2023/08/03 13:09:34;;;;;;;3.88;1.50;;;22.50;97.20;;;;;;10477508;28;20664;-88
2023/08/03 13:14:38;;;;;;;2.25;1.95;;;22.70;97.90;;;;;;10478159;28;20557;-87
2023/08/03 13:19:41;;;;;;;2.22;1.65;;;22.60;85.60;;;;;;10477699;28;20221;-88
2023/08/03 13:24:43;;;;;;;1.45;1.20;;;22.50;80.40;;;;;;10494969;28;20206;-88
2023/08/03 13:29:48;;;;;;;1.85;1.45;;;22.60;79.00;;;;;;10495555;28;20587;-88
2023/08/03 13:34:51;;;;;;;2.15;1.35;;;22.70;72.90;;;;;;10494610;28;20236;-88
2023/08/03 13:39:53;;;;;;;1.60;1.50;;;22.70;75.40;;;;;;10495360;28;20222;-88
2023/08/03 13:44:57;;;;;;;4.57;1.13;;;22.80;69.90;;;;;;10495048;28;20202;-88
2023/08/03 13:50:00;;;;;;;2.08;1.15;;;22.90;65.80;;;;;;10494849;28;20263;-88
2023/08/03 13:55:02;;;;;;;4.97;0.75;;;23.00;65.30;;;;;;10495654;28;20198;-88
2023/08/03 14:00:09;;;;;;;1.50;1.40;;;23.30;68.00;;;;;;10495571;28;20244;-88
2023/08/03 14:05:12;;;;;;;1.30;1.00;;;23.50;62.30;;;;;;10494325;28;20206;-88
2023/08/03 14:10:15;;;;;;;1.42;1.08;;;23.40;59.70;;;;;;10476487;28;20244;-87
2023/08/03 14:15:21;;;;;;;2.22;1.08;;;23.30;57.50;;;;;;10495156;28;20284;-88
2023/08/03 14:20:27;;;;;;;2.17;1.13;;;23.50;56.80;;;;;;10460633;28;20237;-88
2023/08/03 14:25:32;;;;;;;3.58;1.30;;;23.60;54.80;;;;;;10483496;28;20202;-87
2023/08/03 14:30:38;;;;;;;2.95;1.65;;;23.50;53.90;;;;;;10502350;28;20237;-88
2023/08/03 14:35:40;;;;;;;4.45;1.00;;;23.40;52.50;;;;;;10501536;28;20631;-88
2023/08/03 14:40:43;;;;;;;3.20;0.98;;;23.40;49.30;;;;;;10503719;28;20287;-88
2023/08/03 14:45:53;;;;;;;3.42;1.00;;;23.50;54.20;;;;;;10503693;28;20256;-88
2023/08/03 14:51:05;;;;;;;3.13;0.57;;;23.60;50.90;;;;;;10500978;28;20256;-88
2023/08/03 14:56:27;;;;;;;3.58;1.40;;;23.50;49.60;;;;;;10483313;28;20206;-87
2023/08/03 15:01:33;;;;;;;1.35;1.25;;;23.30;51.70;;;;;;10501931;28;20218;-87
2023/08/03 15:06:35;;;;;;;1.60;1.30;;;23.20;50.90;;;;;;10483308;28;20198;-88
2023/08/03 15:11:42;;;;;;;2.67;1.95;;;23.00;50.60;;;;;;10501096;28;20220;-87
2023/08/03 15:16:46;;;;;;;1.65;1.20;;;23.00;50.10;;;;;;10500096;28;20260;-88
2023/08/03 15:21:49;;;;;;;2.00;1.65;;;23.00;49.10;;;;;;10482898;28;20202;-89
2023/08/03 15:26:52;;;;;;;1.42;1.20;;;23.10;49.70;;;;;;10500504;28;20244;-88
2023/08/03 15:31:59;;;;;;;2.65;1.58;;;23.00;50.90;;;;;;10483099;28;20610;-88
2023/08/03 15:37:22;;;;;;;2.22;1.20;;;22.90;51.20;;;;;;10498369;28;20596;-88
2023/08/03 15:42:27;;;;;;;2.80;1.08;;;23.00;48.30;;;;;;10481462;28;20226;-88
2023/08/03 15:47:36;;;;;;;1.80;1.10;;;23.20;48.00;;;;;;10499618;28;20199;-88
2023/08/03 15:52:41;;;;;;;5.00;1.00;;;23.10;47.90;;;;;;10499529;28;20208;-88
2023/08/03 15:58:07;;;;;;;2.97;1.05;;;23.00;48.60;;;;;;10498448;28;20202;-88
2023/08/03 16:03:10;;;;;;;3.75;0.90;;;22.90;49.10;;;;;;10497776;28;20206;-88
2023/08/03 16:08:13;;;;;;;2.80;0.75;;;22.90;48.10;;;;;;10481059;28;20252;-88
2023/08/03 16:13:16;;;;;;;1.30;1.20;;;22.70;46.40;;;;;;10498144;28;20252;-88
2023/08/03 16:18:19;;;;;;;0.95;0.93;;;22.70;49.10;;;;;;10498103;28;20244;-88
2023/08/03 16:23:21;;;;;;;1.10;0.98;;;22.70;49.10;;;;;;10497455;28;20666;-87
2023/08/03 16:28:24;;;;;;;1.10;1.00;;;22.60;50.50;;;;;;10480171;28;20194;-88
2023/08/03 16:33:26;;;;;;;1.35;1.05;;;22.50;50.20;;;;;;10497657;28;20224;-88
2023/08/03 16:38:29;;;;;;;1.45;1.25;;;22.50;48.30;;;;;;10496166;28;20284;-87
2023/08/03 16:43:32;;;;;;;2.90;0.73;;;22.40;49.90;;;;;;10479071;28;20252;-88
2023/08/03 16:48:34;;;;;;;1.52;1.23;;;22.30;48.80;;;;;;10495376;28;20210;-88
2023/08/03 16:53:42;;;;;;;1.05;0.95;;;22.30;47.90;;;;;;10496746;28;20206;-88
2023/08/03 16:58:45;;;;;;;2.95;0.90;;;22.30;48.90;;;;;;10478013;28;20221;-88
2023/08/03 17:03:49;;;;;;;3.42;0.60;;;22.30;47.40;;;;;;10479001;28;20247;-88
2023/08/03 17:08:51;;;;;;;1.17;1.02;;;22.40;47.50;;;;;;10496777;28;20252;-88
2023/08/03 17:13:54;;;;;;;1.30;1.20;;;22.40;48.20;;;;;;10477681;28;20260;-88
2023/08/03 17:18:57;;;;;;;2.90;1.30;;;22.40;48.80;;;;;;10478132;28;20210;-88
2023/08/03 17:23:59;;;;;;;1.55;1.27;;;22.30;48.50;;;;;;10496130;28;20202;-88
2023/08/03 17:29:02;;;;;;;1.65;1.50;;;22.20;48.20;;;;;;10478126;28;20746;-88
2023/08/03 17:34:06;;;;;;;1.17;0.93;;;22.10;48.90;;;;;;10508662;28;20228;-88
2023/08/03 17:39:09;;;;;;;2.05;1.50;;;22.10;49.00;;;;;;10496981;28;20596;-87
2023/08/03 17:44:11;;;;;;;1.05;0.93;;;22.10;50.20;;;;;;10491891;28;20255;-88
2023/08/03 17:49:14;;;;;;;1.60;1.00;;;22.10;49.80;;;;;;10495059;28;20240;-88
2023/08/03 17:54:17;;;;;;;1.67;1.13;;;22.10;51.20;;;;;;10495576;28;20202;-88
2023/08/03 17:59:20;;;;;;;1.33;0.90;;;22.10;52.20;;;;;;10483085;28;20559;-88
2023/08/03 18:04:23;;;;;;;1.90;1.17;;;22.00;50.10;;;;;;10485129;28;20633;-87
2023/08/03 18:09:28;;;;;;;2.03;1.52;;;21.90;50.30;;;;;;10503474;28;20191;-87
2023/08/03 18:14:31;;;;;;;1.50;0.80;;;21.90;51.60;;;;;;10503428;28;20202;-88
2023/08/03 18:19:33;;;;;;;2.63;0.77;;;21.90;50.20;;;;;;10503423;28;20217;-88
2023/08/03 18:24:36;;;;;;;1.23;0.82;;;21.80;50.40;;;;;;10485638;28;20199;-88
2023/08/03 18:29:39;;;;;;;3.38;1.27;;;21.80;50.70;;;;;;10504006;28;20210;-88
2023/08/03 18:34:41;;;;;;;1.98;0.60;;;21.80;51.80;;;;;;10474097;28;20211;-88
2023/08/03 18:39:44;;;;;;;1.67;1.25;;;21.70;49.30;;;;;;10507576;28;20230;-88
2023/08/03 18:44:46;;;;;;;1.20;0.70;;;21.70;52.70;;;;;;10502137;28;20191;-88
2023/08/03 18:49:49;;;;;;;2.40;1.30;;;21.70;51.40;;;;;;10501833;28;20559;-88
2023/08/03 18:54:51;;;;;;;1.85;1.42;;;21.60;52.30;;;;;;10501794;28;20256;-88
2023/08/03 18:59:54;;;;;;;1.80;1.20;;;21.60;52.00;;;;;;10500946;28;20635;-88
2023/08/03 19:04:57;;;;;;;2.33;1.02;;;21.50;52.40;;;;;;10500551;28;20198;-88
2023/08/03 19:09:59;;;;;;;4.00;0.90;;;21.50;51.50;;;;;;10500505;28;20676;-88
2023/08/03 19:15:02;;;;;;;1.65;1.15;;;21.50;53.10;;;;;;10501026;28;20202;-88
2023/08/03 19:20:05;;;;;;;5.85;1.10;;;21.40;52.90;;;;;;10500530;28;20217;-88
2023/08/03 19:25:08;;;;;;;2.97;0.80;;;21.30;54.40;;;;;;10500927;28;20574;-88
2023/08/03 19:30:10;;;;;;;3.45;1.00;;;21.20;53.90;;;;;;10483936;28;20206;-87
2023/08/03 19:35:14;;;;;;;2.30;1.02;;;21.20;54.90;;;;;;10487070;28;20221;-88
2023/08/03 19:40:16;;;;;;;2.97;1.33;;;21.10;56.10;;;;;;10484293;28;20314;-88
2023/08/03 19:45:23;;;;;;;1.33;1.20;;;21.10;57.60;;;;;;10502090;28;20190;-88
2023/08/03 19:50:26;;;;;;;2.28;1.10;;;21.10;57.90;;;;;;10483283;28;20239;-87
2023/08/03 19:55:29;;;;;;;1.42;0.90;;;21.00;56.00;;;;;;10483260;28;20213;-88
2023/08/03 20:00:31;;;;;;;4.03;0.70;;;21.00;56.00;;;;;;10500929;28;20218;-88
2023/08/03 20:05:38;;;;;;;5.60;1.27;;;21.00;56.20;;;;;;10500897;28;20190;-87
2023/08/03 20:10:44;;;;;;;1.27;0.80;;;21.00;57.80;;;;;;10499956;28;20263;-88
2023/08/03 20:15:52;;;;;;;1.63;1.13;;;20.90;57.50;;;;;;10481920;28;20624;-88
2023/08/03 20:20:55;;;;;;;1.90;1.20;;;20.90;58.30;;;;;;10481741;28;20632;-87
2023/08/03 20:26:01;;;;;;;2.55;0.85;;;20.80;58.80;;;;;;10499193;28;20255;-88
2023/08/03 20:31:04;;;;;;;1.08;0.65;;;20.70;59.00;;;;;;10498640;28;20240;-87
2023/08/03 20:36:07;;;;;;;1.40;1.13;;;20.60;58.40;;;;;;10463619;28;20749;-88
2023/08/03 20:41:10;;;;;;;2.42;1.17;;;20.50;59.80;;;;;;10480482;28;20267;-88
2023/08/03 20:46:13;;;;;;;0.93;0.63;;;20.40;61.00;;;;;;10479543;28;20210;-88
2023/08/03 20:51:36;;;;;;;2.03;0.88;;;20.10;63.70;;;;;;10497789;28;20551;-87
2023/08/03 20:56:39;;;;;;;2.58;1.48;;;19.90;64.10;;;;;;10497598;28;20202;-87
2023/08/03 21:01:42;;;;;;;4.53;0.90;;;19.80;65.80;;;;;;10496102;28;20226;-88
2023/08/03 21:06:45;;;;;;;2.75;0.90;;;19.60;67.60;;;;;;10495704;28;20210;-88
2023/08/03 21:11:47;;;;;;;1.65;1.00;;;19.60;67.60;;;;;;10478471;28;20206;-88
2023/08/03 21:16:50;;;;;;;2.65;1.17;;;19.50;68.90;;;;;;10477622;28;20210;-88
2023/08/03 21:21:53;;;;;;;2.10;0.90;;;19.40;69.80;;;;;;10495621;28;20971;-88
2023/08/03 21:26:55;;;;;;;2.55;0.93;;;19.40;71.50;;;;;;10495383;28;20618;-88
2023/08/03 21:31:57;;;;;;;0.65;0.63;;;19.20;73.40;;;;;;10494788;28;20214;-87
2023/08/03 21:37:00;;;;;;;1.20;1.02;;;19.10;75.60;;;;;;10497505;28;20229;-87
2023/08/03 21:42:03;;;;;;;2.47;1.00;;;19.00;76.70;;;;;;10497537;28;20248;-88
2023/08/03 21:47:07;;;;;;;3.20;0.90;;;18.80;78.90;;;;;;10494953;28;20232;-87
2023/08/03 21:52:10;;;;;;;1.58;1.30;;;18.90;79.00;;;;;;10477162;28;20202;-88
2023/08/03 21:57:12;;;;;;;1.75;1.00;;;19.10;79.40;;;;;;10495407;28;20190;-88
2023/08/03 22:02:15;;;;;;;0.73;0.70;;;19.10;78.90;;;;;;10476905;28;20283;-88
2023/08/03 22:07:17;;;;;;;4.95;0.63;;;19.00;79.50;;;;;;10494424;28;20561;-88
2023/08/03 22:12:20;;;;;;;3.33;0.70;;;18.90;82.20;;;;;;10494630;28;20252;-88
2023/08/03 22:17:22;;;;;;;4.30;1.27;;;18.80;84.00;;;;;;10494909;28;20610;-87
2023/08/03 22:22:25;;;;;;;3.17;0.90;;;18.80;84.40;;;;;;10493496;28;20283;-88
2023/08/03 22:27:27;;;;;;;0.70;0.60;;;18.80;84.40;;;;;;10494744;28;20198;-88
2023/08/03 22:32:30;;;;;;;1.50;0.90;;;18.90;84.20;;;;;;10494504;28;20202;-88
2023/08/03 22:37:32;;;;;;;1.17;0.70;;;19.00;83.50;;;;;;10494389;28;20218;-88
2023/08/03 22:42:35;;;;;;;2.28;0.98;;;19.00;85.30;;;;;;10494705;28;20685;-87
2023/08/03 22:47:38;;;;;;;2.05;0.90;;;19.00;84.00;;;;;;10483736;28;20202;-87
2023/08/03 22:53:00;;;;;;;0.70;0.70;;;19.00;83.50;;;;;;10470031;28;20632;-88
2023/08/03 22:58:03;;;;;;;1.90;0.90;;;19.00;83.30;;;;;;10501760;28;20240;-88
2023/08/03 23:03:06;;;;;;;2.08;1.08;;;19.00;83.20;;;;;;10501063;28;20641;-88
2023/08/03 23:08:08;;;;;;;1.67;1.02;;;19.00;83.30;;;;;;10482916;28;20202;-88
2023/08/03 23:13:11;;;;;;;2.78;1.08;;;19.00;83.80;;;;;;10500253;28;20211;-88
2023/08/03 23:18:13;;;;;;;0.60;0.60;;;19.10;82.30;;;;;;10500043;28;20676;-88
2023/08/03 23:23:16;;;;;;;1.20;1.05;;;19.30;81.70;;;;;;10500187;28;20276;-88
2023/08/03 23:28:18;;;;;;;1.77;0.80;;;19.40;81.70;;;;;;10499865;28;20228;-88
2023/08/03 23:33:21;;;;;;;2.72;0.68;;;19.30;80.60;;;;;;10499237;28;20206;-88
2023/08/03 23:38:23;;;;;;;2.75;1.05;;;19.30;81.60;;;;;;10500083;28;20218;-87
2023/08/03 23:43:26;;;;;;;0.82;0.70;;;19.20;82.00;;;;;;10500072;28;20279;-87
2023/08/03 23:48:29;;;;;;;2.78;0.60;;;18.90;83.60;;;;;;10498823;28;20207;-87
2023/08/03 23:53:31;;;;;;;0.70;0.70;;;18.70;86.10;;;;;;10481301;28;20205;-88
2023/08/03 23:58:34;;;;;;;0.77;0.77;;;18.70;86.80;;;;;;10498031;28;20271;-88
